createdAt,value
2023-04-23T00:01:20.695Z,11.12
2023-04-23T00:03:53.858Z,11.09
2023-04-23T00:06:27.768Z,11.06
2023-04-23T00:09:01.770Z,11.03
2023-04-23T00:11:39.129Z,11.01
2023-04-23T00:14:13.634Z,10.99
2023-04-23T00:16:47.584Z,10.97
2023-04-23T00:19:18.560Z,10.93
2023-04-23T00:21:49.806Z,10.88
2023-04-23T00:24:22.670Z,10.85
2023-04-23T00:26:54.427Z,10.83
2023-04-23T00:29:29.353Z,10.82
2023-04-23T00:32:03.734Z,10.79
2023-04-23T00:34:37.797Z,10.77
2023-04-23T00:37:11.614Z,10.75
2023-04-23T00:39:44.043Z,10.73
2023-04-23T00:42:16.613Z,10.71
2023-04-23T00:44:51.936Z,10.69
2023-04-23T00:47:25.980Z,10.68
2023-04-23T00:49:57.530Z,10.65
2023-04-23T00:52:32.561Z,10.63
2023-04-23T00:55:22.128Z,10.61
2023-04-23T00:57:55.961Z,10.55
2023-04-23T01:00:29.130Z,10.52
2023-04-23T01:03:05.096Z,10.49
2023-04-23T01:05:36.923Z,10.50
2023-04-23T01:08:11.576Z,10.48
2023-04-23T01:10:43.909Z,10.44
2023-04-23T01:13:17.438Z,10.40
2023-04-23T01:15:53.141Z,10.37
2023-04-23T01:18:25.214Z,10.34
2023-04-23T01:20:56.717Z,10.31
2023-04-23T01:23:29.018Z,10.29
2023-04-23T01:26:03.917Z,10.25
2023-04-23T01:28:37.058Z,10.21
2023-04-23T01:31:09.624Z,10.18
2023-04-23T01:33:43.734Z,10.16
2023-04-23T01:36:16.783Z,10.13
2023-04-23T01:38:52.567Z,10.12
2023-04-23T01:41:26.369Z,10.12
2023-04-23T01:44:03.387Z,10.11
2023-04-23T01:46:38.897Z,10.09
2023-04-23T01:49:12.041Z,10.06
2023-04-23T01:51:45.378Z,10.04
2023-04-23T01:54:17.185Z,10.01
2023-04-23T01:56:50.150Z,10.00
2023-04-23T01:59:24.552Z,9.99
2023-04-23T02:01:57.547Z,9.98
2023-04-23T02:04:35.318Z,9.96
2023-04-23T02:07:07.995Z,9.93
2023-04-23T02:09:41.493Z,9.92
2023-04-23T02:12:15.633Z,9.91
2023-04-23T02:14:49.252Z,9.89
2023-04-23T02:17:25.139Z,9.88
2023-04-23T02:20:02.481Z,9.86
2023-04-23T02:22:35.142Z,9.84
2023-04-23T02:25:09.010Z,9.82
2023-04-23T02:27:50.253Z,9.80
2023-04-23T02:30:22.553Z,9.80
2023-04-23T02:32:56.550Z,9.79
2023-04-23T02:35:30.799Z,9.81
2023-04-23T02:38:10.430Z,9.80
2023-04-23T02:40:43.542Z,9.79
2023-04-23T02:43:15.913Z,9.77
2023-04-23T02:45:49.345Z,9.73
2023-04-23T02:48:24.390Z,9.71
2023-04-23T02:50:56.312Z,9.71
2023-04-23T02:53:28.508Z,9.70
2023-04-23T02:56:04.118Z,9.70
2023-04-23T02:58:37.109Z,9.69
2023-04-23T03:01:10.341Z,9.68
2023-04-23T03:03:42.097Z,9.66
2023-04-23T03:06:15.395Z,9.64
2023-04-23T03:08:50.092Z,9.63
2023-04-23T03:11:21.529Z,9.62
2023-04-23T03:13:53.869Z,9.58
2023-04-23T03:16:33.483Z,9.55
2023-04-23T03:19:06.854Z,9.52
2023-04-23T03:21:41.322Z,9.51
2023-04-23T03:24:15.243Z,9.50
2023-04-23T03:26:48.608Z,9.48
2023-04-23T03:29:22.991Z,9.48
2023-04-23T03:31:59.589Z,9.48
2023-04-23T03:34:33.730Z,9.48
2023-04-23T03:37:05.717Z,9.48
2023-04-23T03:39:42.535Z,9.49
2023-04-23T03:42:16.818Z,9.48
2023-04-23T03:44:49.746Z,9.46
2023-04-23T03:47:20.394Z,9.44
2023-04-23T03:49:55.375Z,9.46
2023-04-23T03:52:29.396Z,9.46
2023-04-23T03:55:01.060Z,9.47
2023-04-23T03:57:40.367Z,9.47
2023-04-23T04:00:37.496Z,9.42
2023-04-23T04:03:12.098Z,9.42
2023-04-23T04:05:46.822Z,9.43
2023-04-23T04:08:20.188Z,9.44
2023-04-23T04:10:54.198Z,9.44
2023-04-23T04:13:25.963Z,9.45
2023-04-23T04:16:02.509Z,9.47
2023-04-23T04:18:37.363Z,9.51
2023-04-23T04:21:10.091Z,9.54
2023-04-23T04:23:44.362Z,9.58
2023-04-23T04:26:18.947Z,9.61
2023-04-23T04:28:54.250Z,9.62
2023-04-23T04:31:31.589Z,9.66
2023-04-23T04:34:07.226Z,9.69
2023-04-23T04:36:37.967Z,9.71
2023-04-23T04:39:10.636Z,9.72
2023-04-23T04:41:45.704Z,9.74
2023-04-23T04:44:18.433Z,9.76
2023-04-23T04:46:51.376Z,9.76
2023-04-23T04:49:24.081Z,9.79
2023-04-23T04:51:56.981Z,9.83
2023-04-23T04:54:28.631Z,9.88
2023-04-23T04:57:00.854Z,9.92
2023-04-23T04:59:35.597Z,9.95
2023-04-23T05:02:10.309Z,9.98
2023-04-23T05:04:43.768Z,10.03
2023-04-23T05:07:20.570Z,10.07
2023-04-23T05:09:56.158Z,10.13
2023-04-23T05:12:31.328Z,10.20
2023-04-23T05:15:04.908Z,10.25
2023-04-23T05:17:39.772Z,10.32
2023-04-23T05:20:13.382Z,10.39
2023-04-23T05:22:44.892Z,10.44
2023-04-23T05:25:17.646Z,10.50
2023-04-23T05:27:50.802Z,10.58
2023-04-23T05:30:25.357Z,10.64
2023-04-23T05:33:00.536Z,10.70
2023-04-23T05:35:32.518Z,10.77
2023-04-23T05:38:06.425Z,10.85
2023-04-23T05:40:38.357Z,10.93
2023-04-23T05:43:10.958Z,11.00
2023-04-23T05:45:46.115Z,11.08
2023-04-23T05:48:18.866Z,11.17
2023-04-23T05:50:51.987Z,11.25
2023-04-23T05:53:24.611Z,11.33
2023-04-23T05:55:59.055Z,11.41
2023-04-23T05:58:31.573Z,11.51
2023-04-23T06:01:07.684Z,11.60
2023-04-23T06:03:44.854Z,11.71
2023-04-23T06:06:17.429Z,11.81
2023-04-23T06:08:50.579Z,11.91
2023-04-23T06:11:22.957Z,12.00
2023-04-23T06:13:54.964Z,12.10
2023-04-23T06:16:27.053Z,12.18
2023-04-23T06:18:58.764Z,12.27
2023-04-23T06:21:31.190Z,12.35
2023-04-23T06:24:04.765Z,12.42
2023-04-23T06:26:34.951Z,12.54
2023-04-23T06:29:10.060Z,12.64
2023-04-23T06:31:48.070Z,12.73
2023-04-23T06:34:25.471Z,12.80
2023-04-23T06:36:58.148Z,12.91
2023-04-23T06:39:29.454Z,13.00
2023-04-23T06:42:01.801Z,13.11
2023-04-23T06:44:50.173Z,13.22
2023-04-23T06:47:21.073Z,13.31
2023-04-23T06:49:53.630Z,13.40
2023-04-23T06:52:27.389Z,13.49
2023-04-23T06:55:00.246Z,13.57
2023-04-23T06:57:36.837Z,13.68
2023-04-23T07:00:15.732Z,13.78
2023-04-23T07:02:50.489Z,13.89
2023-04-23T07:05:39.175Z,13.99
2023-04-23T07:08:11.937Z,14.10
2023-04-23T07:10:48.715Z,14.18
2023-04-23T07:13:24.288Z,14.29
2023-04-23T07:16:00.079Z,14.39
2023-04-23T07:18:36.168Z,14.51
2023-04-23T07:21:10.550Z,14.63
2023-04-23T07:23:42.559Z,14.73
2023-04-23T07:26:14.649Z,14.85
2023-04-23T07:28:50.303Z,14.97
2023-04-23T07:31:27.251Z,15.06
2023-04-23T07:33:59.355Z,15.15
2023-04-23T07:36:35.703Z,15.24
2023-04-23T07:39:10.528Z,15.32
2023-04-23T07:41:43.973Z,15.45
2023-04-23T07:44:21.271Z,15.57
2023-04-23T07:46:56.394Z,15.69
2023-04-23T07:49:35.008Z,15.80
2023-04-23T07:52:08.756Z,15.90
2023-04-23T07:54:43.178Z,16.02
2023-04-23T07:57:16.296Z,16.13
2023-04-23T07:59:50.921Z,16.24
2023-04-23T08:02:26.749Z,16.34
2023-04-23T08:05:01.447Z,16.44
2023-04-23T08:07:34.197Z,16.55
2023-04-23T08:10:08.235Z,16.70
2023-04-23T08:12:41.134Z,16.79
2023-04-23T08:15:14.072Z,16.87
2023-04-23T08:17:48.613Z,16.97
2023-04-23T08:20:21.928Z,17.06
2023-04-23T08:22:58.308Z,17.20
2023-04-23T08:25:32.483Z,17.29
2023-04-23T08:28:05.122Z,17.39
2023-04-23T08:30:37.892Z,17.48
2023-04-23T08:33:14.528Z,17.56
2023-04-23T08:35:52.074Z,17.65
2023-04-23T08:38:28.524Z,17.74
2023-04-23T08:41:10.878Z,17.87
2023-04-23T08:43:51.787Z,17.96
2023-04-23T08:46:32.290Z,18.05
2023-04-23T08:49:08.842Z,18.16
2023-04-23T08:51:43.689Z,18.25
2023-04-23T08:54:31.532Z,18.35
2023-04-23T08:57:11.508Z,18.43
2023-04-23T08:59:47.652Z,18.50
2023-04-23T09:02:26.261Z,18.56
2023-04-23T09:05:15.508Z,18.65
2023-04-23T09:07:49.876Z,18.72
2023-04-23T09:10:25.318Z,18.81
2023-04-23T09:13:01.935Z,18.92
2023-04-23T09:15:43.052Z,19.03
2023-04-23T09:18:22.795Z,19.13
2023-04-23T09:20:56.466Z,19.19
2023-04-23T09:23:32.107Z,19.27
2023-04-23T09:26:19.642Z,19.32
2023-04-23T09:28:55.798Z,19.39
2023-04-23T09:31:31.770Z,19.50
2023-04-23T09:34:13.069Z,19.61
2023-04-23T09:36:46.799Z,19.72
2023-04-23T09:39:26.216Z,19.77
2023-04-23T09:42:11.618Z,19.78
2023-04-23T09:44:49.227Z,19.84
2023-04-23T09:47:22.589Z,19.88
2023-04-23T09:50:01.855Z,19.91
2023-04-23T09:52:35.452Z,19.94
2023-04-23T09:55:13.222Z,20.04
2023-04-23T09:57:47.785Z,20.15
2023-04-23T10:00:30.333Z,20.20
2023-04-23T10:03:02.508Z,20.26
2023-04-23T10:08:39.261Z,20.33
2023-04-23T10:13:56.017Z,20.51
2023-04-23T10:16:49.011Z,20.58
2023-04-23T10:19:24.369Z,20.63
2023-04-23T10:22:18.423Z,20.71
2023-04-23T10:25:01.056Z,20.77
2023-04-23T10:27:52.163Z,20.83
2023-04-23T10:30:30.480Z,20.89
2023-04-23T10:33:13.125Z,20.91
2023-04-23T10:35:55.921Z,20.97
2023-04-23T10:38:31.495Z,21.05
2023-04-23T10:41:12.677Z,21.09
2023-04-23T10:43:46.354Z,21.14
2023-04-23T10:46:37.899Z,21.20
2023-04-23T10:49:17.076Z,21.24
2023-04-23T10:54:37.516Z,21.31
2023-04-23T10:57:16.362Z,21.37
2023-04-23T10:59:56.444Z,21.42
2023-04-23T11:02:43.951Z,21.46
2023-04-23T11:05:27.628Z,21.51
2023-04-23T11:08:18.865Z,21.54
2023-04-23T11:11:03.089Z,21.57
2023-04-23T11:13:35.977Z,21.60
2023-04-23T11:16:23.689Z,21.65
2023-04-23T11:19:12.428Z,21.65
2023-04-23T11:22:12.264Z,21.62
2023-04-23T11:24:47.668Z,21.65
2023-04-23T11:27:22.505Z,21.69
2023-04-23T11:30:14.896Z,21.76
2023-04-23T11:32:59.319Z,21.80
2023-04-23T11:35:39.525Z,21.83
2023-04-23T11:38:21.233Z,21.86
2023-04-23T11:41:03.109Z,21.88
2023-04-23T11:43:35.572Z,21.90
2023-04-23T11:46:10.983Z,21.94
2023-04-23T11:48:43.420Z,22.02
2023-04-23T11:51:16.181Z,22.08
2023-04-23T11:54:02.651Z,22.08
2023-04-23T11:56:37.247Z,22.08
2023-04-23T11:59:13.659Z,22.09
2023-04-23T12:01:53.159Z,22.12
2023-04-23T12:04:25.423Z,22.15
2023-04-23T12:07:12.741Z,22.20
2023-04-23T12:09:51.329Z,22.25
2023-04-23T12:12:38.911Z,22.26
2023-04-23T12:15:13.727Z,22.29
2023-04-23T12:17:52.319Z,22.34
2023-04-23T12:20:30.148Z,22.32
2023-04-23T12:23:28.983Z,22.29
2023-04-23T12:26:11.453Z,22.29
2023-04-23T12:28:50.364Z,22.33
2023-04-23T12:31:25.230Z,22.36
2023-04-23T12:34:02.912Z,22.41
2023-04-23T12:36:49.540Z,22.42
2023-04-23T12:39:25.956Z,22.38
2023-04-23T12:42:01.722Z,22.39
2023-04-23T12:44:36.235Z,22.44
2023-04-23T12:47:09.121Z,22.53
2023-04-23T12:49:42.722Z,22.59
2023-04-23T12:52:16.964Z,22.66
2023-04-23T12:54:53.446Z,22.73
2023-04-23T12:57:27.755Z,22.78
2023-04-23T13:00:10.795Z,22.82
2023-04-23T13:02:43.920Z,22.89
2023-04-23T13:05:17.111Z,22.96
2023-04-23T13:07:47.582Z,23.00
2023-04-23T13:10:22.969Z,23.02
2023-04-23T13:12:59.438Z,23.06
2023-04-23T13:15:32.898Z,23.08
2023-04-23T13:18:04.923Z,23.11
2023-04-23T13:20:40.526Z,23.14
2023-04-23T13:23:17.140Z,23.15
2023-04-23T13:25:55.714Z,23.17
2023-04-23T13:28:28.205Z,23.18
2023-04-23T13:31:07.556Z,23.17
2023-04-23T13:33:45.693Z,23.14
2023-04-23T13:36:18.988Z,23.16
2023-04-23T13:38:55.486Z,23.20
2023-04-23T13:41:35.018Z,23.19
2023-04-23T13:44:08.362Z,23.22
2023-04-23T13:46:43.057Z,23.21
2023-04-23T13:49:15.443Z,23.16
2023-04-23T13:51:51.933Z,23.13
2023-04-23T13:54:25.179Z,23.13
2023-04-23T13:56:58.972Z,23.14
2023-04-23T13:59:31.754Z,23.16
2023-04-23T14:02:06.218Z,23.17
2023-04-23T14:04:45.621Z,23.16
2023-04-23T14:07:16.025Z,23.15
2023-04-23T14:09:54.337Z,23.15
2023-04-23T14:12:28.458Z,23.11
2023-04-23T14:15:09.123Z,23.08
2023-04-23T14:17:47.569Z,23.05
2023-04-23T14:20:20.821Z,23.06
2023-04-23T14:23:30.792Z,23.07
2023-04-23T14:26:10.725Z,22.99
2023-04-23T14:28:51.911Z,22.95
2023-04-23T14:31:37.038Z,22.87
2023-04-23T14:34:13.027Z,22.85
2023-04-23T14:36:46.695Z,22.86
2023-04-23T14:39:20.559Z,22.84
2023-04-23T14:41:54.080Z,22.86
2023-04-23T14:44:26.770Z,22.91
2023-04-23T14:46:59.749Z,22.95
2023-04-23T14:49:32.143Z,22.98
2023-04-23T14:52:14.850Z,22.95
2023-04-23T14:54:47.605Z,22.95
2023-04-23T14:57:21.618Z,22.93
2023-04-23T15:00:01.673Z,22.86
2023-04-23T15:02:47.455Z,22.83
2023-04-23T15:05:20.644Z,22.83
2023-04-23T15:07:54.887Z,22.82
2023-04-23T15:10:32.613Z,22.82
2023-04-23T15:13:32.055Z,22.81
2023-04-23T15:16:29.023Z,22.73
2023-04-23T15:19:18.574Z,22.63
2023-04-23T15:21:52.665Z,22.54
2023-04-23T15:24:23.833Z,22.50
2023-04-23T15:26:58.833Z,22.48
2023-04-23T15:29:40.142Z,22.39
2023-04-23T15:32:20.914Z,22.24
2023-04-23T15:34:57.346Z,22.06
2023-04-23T15:37:45.761Z,21.89
2023-04-23T15:40:19.257Z,21.79
2023-04-23T15:42:55.021Z,21.69
2023-04-23T15:45:37.092Z,21.59
2023-04-23T15:48:15.151Z,21.43
2023-04-23T15:50:58.430Z,21.29
2023-04-23T15:53:33.702Z,21.20
2023-04-23T15:56:07.075Z,21.13
2023-04-23T15:58:42.919Z,21.04
2023-04-23T16:01:21.057Z,20.95
2023-04-23T16:04:09.501Z,20.87
2023-04-23T16:06:57.618Z,20.82
2023-04-23T16:09:29.644Z,20.73
2023-04-23T16:12:02.266Z,20.68
2023-04-23T16:14:36.816Z,20.63
2023-04-23T16:17:13.647Z,20.61
2023-04-23T16:19:47.972Z,20.55
2023-04-23T16:22:20.268Z,20.49
2023-04-23T16:24:52.124Z,20.44
2023-04-23T16:27:26.649Z,20.42
2023-04-23T16:30:02.266Z,20.43
2023-04-23T16:32:53.118Z,20.38
2023-04-23T16:35:27.217Z,20.33
2023-04-23T16:38:00.859Z,20.26
2023-04-23T16:40:39.753Z,20.17
2023-04-23T16:43:12.915Z,20.13
2023-04-23T16:45:46.893Z,20.06
2023-04-23T16:48:20.304Z,19.98
2023-04-23T16:50:53.098Z,19.94
2023-04-23T16:53:24.934Z,19.86
2023-04-23T16:55:58.049Z,19.77
2023-04-23T16:58:29.554Z,19.70
2023-04-23T17:01:01.096Z,19.66
2023-04-23T17:03:33.494Z,19.60
2023-04-23T17:06:11.870Z,19.58
2023-04-23T17:08:45.910Z,19.51
2023-04-23T17:11:20.576Z,19.43
2023-04-23T17:13:58.160Z,19.39
2023-04-23T17:16:29.325Z,19.35
2023-04-23T17:19:05.932Z,19.31
2023-04-23T17:21:40.301Z,19.25
2023-04-23T17:24:12.301Z,19.19
2023-04-23T17:26:51.820Z,19.15
2023-04-23T17:29:33.112Z,19.05
2023-04-23T17:32:05.784Z,18.99
2023-04-23T17:34:39.027Z,18.95
2023-04-23T17:37:17.649Z,18.90
2023-04-23T17:39:56.835Z,18.83
2023-04-23T17:42:31.378Z,18.82
2023-04-23T17:45:04.005Z,18.81
2023-04-23T17:47:52.760Z,18.81
2023-04-23T17:50:32.983Z,18.77
2023-04-23T17:53:05.152Z,18.70
2023-04-23T17:55:39.939Z,18.67
2023-04-23T17:58:15.236Z,18.62
2023-04-23T18:00:49.053Z,18.58
2023-04-23T18:03:28.675Z,18.56
2023-04-23T18:06:03.654Z,18.50
2023-04-23T18:08:40.481Z,18.44
2023-04-23T18:11:19.586Z,18.39
2023-04-23T18:13:55.439Z,18.34
2023-04-23T18:16:26.755Z,18.30
2023-04-23T18:19:01.002Z,18.24
2023-04-23T18:21:45.443Z,18.21
2023-04-23T18:24:21.572Z,18.15
2023-04-23T18:26:58.670Z,18.13
2023-04-23T18:29:35.314Z,18.11
2023-04-23T18:32:12.331Z,18.06
2023-04-23T18:34:52.415Z,18.01
2023-04-23T18:37:39.099Z,17.97
2023-04-23T18:40:12.677Z,17.92
2023-04-23T18:42:46.245Z,17.87
2023-04-23T18:45:20.319Z,17.84
2023-04-23T18:48:05.718Z,17.82
2023-04-23T18:50:51.762Z,17.77
2023-04-23T18:53:23.769Z,17.75
2023-04-23T18:55:58.276Z,17.68
2023-04-23T18:58:35.968Z,17.65
2023-04-23T19:01:09.274Z,17.61
2023-04-23T19:03:44.170Z,17.53
2023-04-23T19:06:19.841Z,17.44
2023-04-23T19:08:51.753Z,17.36
2023-04-23T19:11:34.889Z,17.30
2023-04-23T19:14:12.005Z,17.26
2023-04-23T19:16:43.618Z,17.24
2023-04-23T19:19:17.145Z,17.26
2023-04-23T19:21:51.667Z,17.28
2023-04-23T19:24:28.542Z,17.27
2023-04-23T19:26:59.621Z,17.25
2023-04-23T19:29:34.326Z,17.23
2023-04-23T19:32:09.824Z,17.18
2023-04-23T19:34:42.873Z,17.16
2023-04-23T19:37:13.810Z,17.17
2023-04-23T19:39:50.582Z,17.23
2023-04-23T19:42:23.662Z,17.27
2023-04-23T19:44:55.996Z,17.31
2023-04-23T19:47:32.645Z,17.33
2023-04-23T19:50:11.141Z,17.34
2023-04-23T19:52:44.802Z,17.32
2023-04-23T19:55:17.796Z,17.37
2023-04-23T19:57:51.091Z,17.39
2023-04-23T20:00:24.198Z,17.36
2023-04-23T20:02:58.503Z,17.32
2023-04-23T20:05:29.903Z,17.33
2023-04-23T20:08:04.135Z,17.29
2023-04-23T20:10:37.572Z,17.23
2023-04-23T20:13:09.757Z,17.24
2023-04-23T20:15:48.132Z,17.23
2023-04-23T20:18:25.029Z,17.25
2023-04-23T20:20:56.786Z,17.28
2023-04-23T20:23:27.481Z,17.31
2023-04-23T20:25:58.650Z,17.34
2023-04-23T20:28:30.062Z,17.36
2023-04-23T20:31:02.726Z,17.36
2023-04-23T20:33:35.258Z,17.34
2023-04-23T20:36:10.850Z,17.33
2023-04-23T20:38:44.421Z,17.27
2023-04-23T20:41:17.255Z,17.21
2023-04-23T20:43:52.072Z,17.17
2023-04-23T20:46:29.413Z,17.10
2023-04-23T20:49:02.683Z,17.04
2023-04-23T20:51:36.318Z,17.00
2023-04-23T20:54:12.835Z,16.95
2023-04-23T20:56:53.280Z,16.88
2023-04-23T20:59:26.969Z,16.80
2023-04-23T21:02:01.049Z,16.76
2023-04-23T21:04:34.054Z,16.70
2023-04-23T21:07:09.349Z,16.64
2023-04-23T21:09:41.874Z,16.59
2023-04-23T21:12:16.095Z,16.57
2023-04-23T21:15:08.324Z,16.54
2023-04-23T21:17:50.409Z,16.46
2023-04-23T21:20:22.397Z,16.40
2023-04-23T21:22:57.696Z,16.36
2023-04-23T21:25:38.861Z,16.30
2023-04-23T21:28:15.650Z,16.24
2023-04-23T21:30:54.627Z,16.18
2023-04-23T21:33:27.887Z,16.14
2023-04-23T21:36:00.723Z,16.10
2023-04-23T21:38:37.712Z,16.06
2023-04-23T21:41:14.032Z,16.01
2023-04-23T21:43:49.477Z,15.97
2023-04-23T21:46:25.997Z,15.92
2023-04-23T21:48:59.223Z,15.89
2023-04-23T21:51:36.288Z,15.85
2023-04-23T21:54:09.657Z,15.81
2023-04-23T21:56:56.450Z,15.75
2023-04-23T21:59:28.296Z,15.71
2023-04-23T22:02:00.716Z,15.69
2023-04-23T22:04:31.470Z,15.68
2023-04-23T22:07:12.831Z,15.65
2023-04-23T22:09:46.357Z,15.62
2023-04-23T22:12:19.395Z,15.60
2023-04-23T22:14:51.721Z,15.58
2023-04-23T22:17:31.906Z,15.56
2023-04-23T22:20:07.936Z,15.52
2023-04-23T22:22:45.011Z,15.49
2023-04-23T22:25:24.607Z,15.46
2023-04-23T22:28:06.282Z,15.44
2023-04-23T22:30:38.657Z,15.40
2023-04-23T22:33:14.960Z,15.37
2023-04-23T22:35:48.944Z,15.35
2023-04-23T22:38:28.482Z,15.33
2023-04-23T22:41:03.982Z,15.29
2023-04-23T22:43:38.584Z,15.27
2023-04-23T22:46:10.768Z,15.24
2023-04-23T22:48:51.683Z,15.22
2023-04-23T22:51:27.027Z,15.20
2023-04-23T22:54:09.664Z,15.16
2023-04-23T22:56:41.614Z,15.16
2023-04-23T22:59:18.874Z,15.15
2023-04-23T23:01:53.713Z,15.14
2023-04-23T23:04:26.104Z,15.14
2023-04-23T23:07:03.615Z,15.11
2023-04-23T23:09:40.358Z,15.09
2023-04-23T23:12:12.518Z,15.08
2023-04-23T23:14:46.102Z,15.08
2023-04-23T23:17:22.826Z,15.08
2023-04-23T23:19:59.612Z,15.07
2023-04-23T23:22:32.490Z,15.06
2023-04-23T23:25:10.984Z,15.05
2023-04-23T23:27:46.285Z,15.03
2023-04-23T23:30:22.440Z,15.02
2023-04-23T23:32:58.962Z,15.00
2023-04-23T23:35:37.495Z,15.00
2023-04-23T23:38:13.911Z,14.98
2023-04-23T23:40:47.088Z,14.97
2023-04-23T23:43:26.544Z,14.95
2023-04-23T23:46:00.537Z,14.94
2023-04-23T23:48:42.076Z,14.93
2023-04-23T23:51:15.631Z,14.92
2023-04-23T23:53:50.475Z,14.91
2023-04-23T23:56:33.812Z,14.89
2023-04-23T23:59:06.497Z,14.87
